KFFL

Fairfield Municipal Airport

Fairfield, Iowa, USA
METAR KFFL 241215Z AUTO 09012KT 6SM BR FEW049 OVC060 M01/M03 A3009 RMK AO2 PWINO
Observed Flight Rules
Feb-24 @ 12:15 UTC (7 minutes ago) Visual Flight Rules
Wind Visibility Clouds Conditions
90° at 12 knots 6 miles
  • Few at 4,900' AGL
  • Overcast at 6,000' AGL
  • Mist
Temperatures Readings
Current -1°C / 30°F
Dewpoint -3°C / 27°F
Humidity 86%
Altimeter 30.09" Hg
Pressure 1019 hPa
Elevation 244
METAR KFFL 241215Z AUTO 09012KT 6SM BR FEW049 OVC060 M01/M03 A3009 RMK AO2 PWINO
Observed Flight Rules
Feb-24 @ 12:15 UTC
(7 minutes ago)
VFR
Wind Visibility
90° at 12 knots 6 miles
Clouds
  • Few at 4,900' AGL
  • Overcast at 6,000' AGL
Conditions
  • Mist
Temperature Dewpoint
-1°C / 30°F -3°C / 27°F
Humidity Altimeter Pressure
86% 30.09" Hg 1019 hPa